createdAt,value
2022-11-24T00:01:47.940Z,82.24
2022-11-24T00:05:49.930Z,82.49
2022-11-24T00:09:51.899Z,81.52
2022-11-24T00:13:55.242Z,81.46
2022-11-24T00:18:27.344Z,80.82
2022-11-24T00:22:57.791Z,81.72
2022-11-24T00:26:59.329Z,81.97
2022-11-24T00:31:02.362Z,82.67
2022-11-24T00:35:04.901Z,83.49
2022-11-24T00:39:14.808Z,84.32
2022-11-24T00:43:41.205Z,84.17
2022-11-24T00:48:32.979Z,84.54
2022-11-24T00:52:34.725Z,84.74
2022-11-24T00:56:36.318Z,84.67
2022-11-24T01:00:38.011Z,84.63
2022-11-24T01:04:39.595Z,83.90
2022-11-24T01:08:42.280Z,83.25
2022-11-24T01:12:43.950Z,82.38
2022-11-24T01:16:45.882Z,82.96
2022-11-24T01:20:47.535Z,83.20
2022-11-24T01:24:49.165Z,83.05
2022-11-24T01:28:55.658Z,84.60
2022-11-24T01:32:57.335Z,82.99
2022-11-24T01:36:58.866Z,83.04
2022-11-24T01:41:21.946Z,82.91
2022-11-24T01:45:41.063Z,82.50
2022-11-24T01:49:51.327Z,83.39
2022-11-24T01:54:00.831Z,83.11
2022-11-24T01:58:19.283Z,83.06
2022-11-24T02:02:21.972Z,84.16
2022-11-24T02:06:27.866Z,83.92
2022-11-24T02:10:29.974Z,82.78
2022-11-24T02:14:32.177Z,83.38
2022-11-24T02:18:34.486Z,83.57
2022-11-24T02:22:51.122Z,85.06
2022-11-24T02:26:53.017Z,86.43
2022-11-24T02:30:55.404Z,86.14
2022-11-24T02:35:07.424Z,86.12
2022-11-24T02:39:12.362Z,85.65
2022-11-24T02:43:18.189Z,86.03
2022-11-24T02:47:19.840Z,84.36
2022-11-24T02:51:21.627Z,83.95
2022-11-24T02:55:25.065Z,85.85
2022-11-24T02:59:26.801Z,85.91
2022-11-24T03:03:28.822Z,84.41
2022-11-24T03:07:30.555Z,83.87
2022-11-24T03:11:32.771Z,84.50
2022-11-24T03:15:35.103Z,83.97
2022-11-24T03:19:36.744Z,85.32
2022-11-24T03:23:38.342Z,84.35
2022-11-24T03:27:40.052Z,85.44
2022-11-24T03:31:41.745Z,85.73
2022-11-24T03:35:43.487Z,86.48
2022-11-24T03:39:45.103Z,85.90
2022-11-24T03:43:46.663Z,86.01
2022-11-24T03:48:48.139Z,86.32
2022-11-24T03:52:49.756Z,85.97
2022-11-24T03:56:51.378Z,86.20
2022-11-24T04:00:54.621Z,86.21
2022-11-24T04:04:56.249Z,86.49
2022-11-24T04:08:57.893Z,86.49
2022-11-24T04:12:59.443Z,86.86
2022-11-24T04:17:02.634Z,86.49
2022-11-24T04:21:04.291Z,85.84
2022-11-24T04:25:06.915Z,85.84
2022-11-24T04:29:09.672Z,86.33
2022-11-24T04:33:11.511Z,85.99
2022-11-24T04:37:13.049Z,86.08
2022-11-24T04:41:14.736Z,85.87
2022-11-24T04:45:16.326Z,85.45
2022-11-24T04:49:17.954Z,85.20
2022-11-24T04:53:19.475Z,85.10
2022-11-24T04:57:23.943Z,85.38
2022-11-24T05:01:25.780Z,85.25
2022-11-24T05:05:27.515Z,84.88
2022-11-24T05:09:54.908Z,84.66
2022-11-24T05:13:52.955Z,84.66
2022-11-24T05:17:55.171Z,84.61
2022-11-24T05:21:57.834Z,84.50
2022-11-24T05:26:01.082Z,84.69
2022-11-24T05:30:03.314Z,84.06
2022-11-24T05:34:04.842Z,83.20
2022-11-24T05:38:06.572Z,82.77
2022-11-24T05:42:27.060Z,83.07
2022-11-24T05:46:28.654Z,82.76
2022-11-24T05:50:30.212Z,82.62
2022-11-24T05:54:31.994Z,82.94
2022-11-24T05:58:33.800Z,82.73
2022-11-24T06:02:35.623Z,82.90
2022-11-24T06:06:37.331Z,83.04
2022-11-24T06:10:38.915Z,82.73
2022-11-24T06:14:40.947Z,82.15
2022-11-24T06:18:42.644Z,82.22
2022-11-24T06:22:44.233Z,82.55
2022-11-24T06:26:45.954Z,82.22
2022-11-24T06:30:47.457Z,81.92
2022-11-24T06:34:49.221Z,81.67
2022-11-24T06:38:50.852Z,81.19
2022-11-24T06:42:52.633Z,80.70
2022-11-24T06:46:56.479Z,80.65
2022-11-24T06:50:59.975Z,80.54
2022-11-24T06:55:01.611Z,79.97
2022-11-24T06:59:03.215Z,79.68
2022-11-24T07:03:04.880Z,79.88
2022-11-24T07:07:06.852Z,80.22
2022-11-24T07:11:10.927Z,79.77
2022-11-24T07:15:12.654Z,80.27
2022-11-24T07:19:14.337Z,80.55
2022-11-24T07:23:15.985Z,81.14
2022-11-24T07:27:17.584Z,80.60
2022-11-24T07:31:21.848Z,80.99
2022-11-24T07:35:23.524Z,80.67
2022-11-24T07:39:25.900Z,80.94
2022-11-24T07:43:28.668Z,81.25
2022-11-24T07:47:30.410Z,81.25
2022-11-24T07:51:32.065Z,81.96
2022-11-24T07:55:33.535Z,81.80
2022-11-24T07:59:35.177Z,82.48
2022-11-24T08:03:37.292Z,82.95
2022-11-24T08:07:39.238Z,83.46
2022-11-24T08:11:40.780Z,83.40
2022-11-24T08:15:42.351Z,82.42
2022-11-24T08:19:44.287Z,81.65
2022-11-24T08:23:46.241Z,80.68
2022-11-24T08:33:42.610Z,79.95
2022-11-24T08:37:45.731Z,79.25
2022-11-24T08:41:56.659Z,78.81
2022-11-24T08:46:17.316Z,79.67
2022-11-24T08:50:31.630Z,78.51
2022-11-24T08:54:36.459Z,78.60
2022-11-24T08:58:39.701Z,79.62
2022-11-24T09:08:06.758Z,80.02
2022-11-24T09:12:20.267Z,79.65
2022-11-24T09:16:30.111Z,80.11
2022-11-24T09:20:32.262Z,79.84
2022-11-24T09:24:36.177Z,79.87
2022-11-24T09:28:38.150Z,79.89
2022-11-24T09:33:30.168Z,80.21
2022-11-24T09:38:09.628Z,80.00
2022-11-24T09:42:19.464Z,79.62
2022-11-24T09:46:28.528Z,79.37
2022-11-24T09:50:57.017Z,78.92
2022-11-24T09:55:28.014Z,78.25
2022-11-24T09:59:31.251Z,78.05
2022-11-24T10:03:50.481Z,78.50
2022-11-24T10:08:21.047Z,78.37
2022-11-24T10:12:51.509Z,78.69
2022-11-24T10:17:18.000Z,78.70
2022-11-24T10:21:44.083Z,78.70
2022-11-24T10:25:52.118Z,78.68
2022-11-24T10:29:55.539Z,78.67
2022-11-24T10:34:30.009Z,78.80
2022-11-24T10:38:48.515Z,79.23
2022-11-24T10:42:51.500Z,78.91
2022-11-24T10:46:53.138Z,78.99
2022-11-24T10:51:06.497Z,79.56
2022-11-24T10:55:52.809Z,79.15
2022-11-24T10:59:56.906Z,78.79
2022-11-24T11:04:02.584Z,79.18
2022-11-24T11:08:45.086Z,79.08
2022-11-24T11:12:47.456Z,80.08
2022-11-24T11:16:57.853Z,79.63
2022-11-24T11:21:02.897Z,79.10
2022-11-24T11:25:23.621Z,79.66
2022-11-24T11:34:35.227Z,77.62
2022-11-24T11:38:40.184Z,76.66
2022-11-24T11:43:02.377Z,75.58
2022-11-24T11:47:16.244Z,76.29
2022-11-24T11:51:50.160Z,77.63
2022-11-24T11:56:24.218Z,78.14
2022-11-24T12:00:26.650Z,78.35
2022-11-24T12:05:01.865Z,78.28
2022-11-24T12:09:36.233Z,79.01
2022-11-24T12:14:25.733Z,78.38
2022-11-24T12:18:59.001Z,77.88
2022-11-24T12:23:31.858Z,77.91
2022-11-24T12:27:50.216Z,77.88
2022-11-24T12:32:19.948Z,78.36
2022-11-24T12:36:52.417Z,78.58
2022-11-24T12:41:41.543Z,78.74
2022-11-24T12:46:41.355Z,78.42
2022-11-24T12:51:33.165Z,77.26
2022-11-24T12:56:11.524Z,77.17
2022-11-24T13:00:31.757Z,76.73
2022-11-24T13:05:10.273Z,77.05
2022-11-24T13:09:15.753Z,77.18
2022-11-24T13:13:17.826Z,77.16
2022-11-24T13:17:58.434Z,76.82
2022-11-24T13:22:49.861Z,76.53
2022-11-24T13:27:13.965Z,75.24
2022-11-24T13:31:27.963Z,63.98
2022-11-24T13:35:30.516Z,57.01
2022-11-24T13:39:52.999Z,60.67
2022-11-24T13:44:16.494Z,64.94
2022-11-24T13:49:09.189Z,68.81
2022-11-24T13:53:42.707Z,71.52
2022-11-24T13:58:13.158Z,72.74
2022-11-24T14:02:23.897Z,73.69
2022-11-24T14:07:07.996Z,75.13
2022-11-24T14:11:17.301Z,75.60
2022-11-24T14:15:57.888Z,75.85
2022-11-24T14:20:22.119Z,76.50
2022-11-24T14:24:41.659Z,77.63
2022-11-24T14:28:47.345Z,77.72
2022-11-24T14:33:19.444Z,78.29
2022-11-24T14:38:15.404Z,78.74
2022-11-24T14:42:27.284Z,78.84
2022-11-24T14:46:29.047Z,79.03
2022-11-24T14:50:30.685Z,79.25
2022-11-24T14:54:36.706Z,79.64
2022-11-24T14:58:47.128Z,79.72
2022-11-24T15:02:53.330Z,79.13
2022-11-24T15:07:08.259Z,79.72
2022-11-24T15:11:11.867Z,80.17
2022-11-24T15:15:13.480Z,79.49
2022-11-24T15:19:16.759Z,79.29
2022-11-24T15:23:41.776Z,79.75
2022-11-24T15:27:45.717Z,78.99
2022-11-24T15:31:52.577Z,78.71
2022-11-24T15:35:55.154Z,79.26
2022-11-24T15:40:21.743Z,79.71
2022-11-24T15:44:23.814Z,79.68
2022-11-24T15:49:15.707Z,80.11
2022-11-24T15:53:24.478Z,79.61
2022-11-24T15:57:26.407Z,80.04
2022-11-24T16:02:33.735Z,80.43
2022-11-24T16:07:06.799Z,80.45
2022-11-24T16:11:35.957Z,80.06
2022-11-24T16:15:41.249Z,79.97
2022-11-24T16:19:43.574Z,80.65
2022-11-24T16:29:51.686Z,81.59
2022-11-24T16:33:53.202Z,82.38
2022-11-24T16:37:54.983Z,81.82
2022-11-24T16:41:56.668Z,83.33
2022-11-24T16:46:19.153Z,83.52
2022-11-24T16:50:22.026Z,83.44
2022-11-24T16:54:23.921Z,83.25
2022-11-24T16:58:25.510Z,84.04
2022-11-24T17:02:27.188Z,84.14
2022-11-24T17:06:29.150Z,83.92
2022-11-24T17:10:31.007Z,83.58
2022-11-24T17:14:32.953Z,83.30
2022-11-24T17:18:35.455Z,83.72
2022-11-24T17:22:36.847Z,83.46
2022-11-24T17:26:38.517Z,83.32
2022-11-24T17:30:40.020Z,82.81
2022-11-24T17:34:43.976Z,82.27
2022-11-24T17:38:45.695Z,82.59
2022-11-24T17:42:47.517Z,82.71
2022-11-24T17:46:49.151Z,82.39
2022-11-24T17:51:03.338Z,82.44
2022-11-24T17:55:05.417Z,82.38
2022-11-24T17:59:07.237Z,82.65
2022-11-24T18:03:08.690Z,82.61
2022-11-24T18:07:10.340Z,82.64
2022-11-24T18:11:24.602Z,82.98
2022-11-24T18:15:30.606Z,82.75
2022-11-24T18:19:32.209Z,83.75
2022-11-24T18:23:35.922Z,84.34
2022-11-24T18:27:37.721Z,83.78
2022-11-24T18:31:42.019Z,84.12
2022-11-24T18:35:44.540Z,84.03
2022-11-24T18:39:49.336Z,83.67
2022-11-24T18:43:50.920Z,83.57
2022-11-24T18:47:55.175Z,83.38
2022-11-24T18:51:59.371Z,82.98
2022-11-24T18:56:03.578Z,83.43
2022-11-24T19:00:06.635Z,83.20
2022-11-24T19:04:12.678Z,83.67
2022-11-24T19:08:16.245Z,84.41
2022-11-24T19:12:17.786Z,84.65
2022-11-24T19:16:23.289Z,85.08
2022-11-24T19:20:24.848Z,85.71
2022-11-24T19:24:26.627Z,86.39
2022-11-24T19:28:28.312Z,86.37
2022-11-24T19:32:31.360Z,86.60
2022-11-24T19:36:32.827Z,86.55
2022-11-24T19:40:34.395Z,86.44
2022-11-24T19:44:38.265Z,86.70
2022-11-24T19:48:45.323Z,86.69
2022-11-24T19:52:48.045Z,86.49
2022-11-24T19:56:49.950Z,86.61
2022-11-24T20:00:51.772Z,85.96
2022-11-24T20:04:53.454Z,86.00
2022-11-24T20:09:00.212Z,86.47
2022-11-24T20:13:04.574Z,85.50
2022-11-24T20:17:07.018Z,85.47
2022-11-24T20:21:19.627Z,85.37
2022-11-24T20:25:22.502Z,85.33
2022-11-24T20:29:24.601Z,85.27
2022-11-24T20:33:26.638Z,85.12
2022-11-24T20:37:29.520Z,84.88
2022-11-24T20:41:36.173Z,85.18
2022-11-24T20:45:40.196Z,85.19
2022-11-24T20:49:44.593Z,85.29
2022-11-24T20:53:46.356Z,84.74
2022-11-24T20:57:48.240Z,84.98
2022-11-24T21:01:51.543Z,85.24
2022-11-24T21:05:57.228Z,84.84
2022-11-24T21:09:58.748Z,85.26
2022-11-24T21:14:00.786Z,85.28
2022-11-24T21:18:03.138Z,84.67
2022-11-24T21:22:04.856Z,84.98
2022-11-24T21:26:13.023Z,84.96
2022-11-24T21:30:15.384Z,85.68
2022-11-24T21:34:18.560Z,85.56
2022-11-24T21:38:20.278Z,85.63
2022-11-24T21:42:21.752Z,84.99
2022-11-24T21:46:24.416Z,85.29
2022-11-24T21:50:25.920Z,85.74
2022-11-24T21:54:27.672Z,85.09
2022-11-24T21:58:29.773Z,84.99
2022-11-24T22:02:31.411Z,84.92
2022-11-24T22:06:33.276Z,84.35
2022-11-24T22:10:34.956Z,84.55
2022-11-24T22:14:40.395Z,84.42
2022-11-24T22:18:43.816Z,84.44
2022-11-24T22:22:50.509Z,84.62
2022-11-24T22:27:20.623Z,84.60
2022-11-24T22:31:24.939Z,84.96
2022-11-24T22:35:28.243Z,85.02
2022-11-24T22:39:29.942Z,84.73
2022-11-24T22:44:13.713Z,84.50
2022-11-24T22:48:19.909Z,84.89
2022-11-24T22:52:21.658Z,84.89
2022-11-24T22:57:13.418Z,85.33
2022-11-24T23:01:40.913Z,85.83
2022-11-24T23:05:42.384Z,85.74
2022-11-24T23:10:16.064Z,85.86
2022-11-24T23:14:17.790Z,86.19
2022-11-24T23:18:19.373Z,85.61
2022-11-24T23:22:55.254Z,85.04
2022-11-24T23:26:57.079Z,84.84
2022-11-24T23:31:03.848Z,85.89
2022-11-24T23:35:09.699Z,86.02
2022-11-24T23:39:15.446Z,86.56
2022-11-24T23:43:17.794Z,86.82
2022-11-24T23:47:57.895Z,86.35
2022-11-24T23:52:24.726Z,86.62
2022-11-24T23:56:33.345Z,86.36
